sensor_id;sensor_type;location;lat;lon;timestamp;P1;durP1;ratioP1;P2;durP2;ratioP2
17631;SDS011;8934;51.194;17.150;2023-09-19T00:02:46;8.48;;;6.88;;
17631;SDS011;8934;51.194;17.150;2023-09-19T00:05:35;12.05;;;7.20;;
17631;SDS011;8934;51.194;17.150;2023-09-19T00:08:24;10.60;;;6.50;;
17631;SDS011;8934;51.194;17.150;2023-09-19T00:11:11;9.30;;;6.22;;
17631;SDS011;8934;51.194;17.150;2023-09-19T00:13:59;7.53;;;4.90;;
17631;SDS011;8934;51.194;17.150;2023-09-19T00:16:48;4.72;;;3.88;;
17631;SDS011;8934;51.194;17.150;2023-09-19T00:19:37;5.03;;;3.47;;
17631;SDS011;8934;51.194;17.150;2023-09-19T00:22:28;4.35;;;3.30;;
17631;SDS011;8934;51.194;17.150;2023-09-19T00:25:17;3.75;;;3.22;;
17631;SDS011;8934;51.194;17.150;2023-09-19T00:28:06;4.70;;;2.90;;
17631;SDS011;8934;51.194;17.150;2023-09-19T00:30:54;3.85;;;2.72;;
17631;SDS011;8934;51.194;17.150;2023-09-19T00:33:42;4.10;;;2.65;;
17631;SDS011;8934;51.194;17.150;2023-09-19T00:36:31;4.00;;;2.40;;
17631;SDS011;8934;51.194;17.150;2023-09-19T00:39:20;6.88;;;2.70;;
17631;SDS011;8934;51.194;17.150;2023-09-19T00:42:08;4.20;;;3.03;;
17631;SDS011;8934;51.194;17.150;2023-09-19T00:44:56;5.18;;;2.78;;
17631;SDS011;8934;51.194;17.150;2023-09-19T00:47:44;5.68;;;2.67;;
17631;SDS011;8934;51.194;17.150;2023-09-19T00:50:35;4.22;;;2.58;;
17631;SDS011;8934;51.194;17.150;2023-09-19T00:57:44;4.45;;;2.42;;
17631;SDS011;8934;51.194;17.150;2023-09-19T01:00:34;4.85;;;2.92;;
17631;SDS011;8934;51.194;17.150;2023-09-19T01:03:22;4.63;;;3.00;;
17631;SDS011;8934;51.194;17.150;2023-09-19T01:06:10;5.13;;;2.75;;
17631;SDS011;8934;51.194;17.150;2023-09-19T01:08:58;4.28;;;2.72;;
17631;SDS011;8934;51.194;17.150;2023-09-19T01:11:47;5.55;;;3.10;;
17631;SDS011;8934;51.194;17.150;2023-09-19T01:14:40;4.10;;;2.95;;
17631;SDS011;8934;51.194;17.150;2023-09-19T01:17:30;3.88;;;2.55;;
17631;SDS011;8934;51.194;17.150;2023-09-19T01:20:26;3.85;;;2.85;;
17631;SDS011;8934;51.194;17.150;2023-09-19T01:23:17;5.07;;;2.45;;
17631;SDS011;8934;51.194;17.150;2023-09-19T01:26:17;5.15;;;2.70;;
17631;SDS011;8934;51.194;17.150;2023-09-19T01:29:19;3.60;;;2.28;;
17631;SDS011;8934;51.194;17.150;2023-09-19T01:32:17;4.45;;;2.42;;
17631;SDS011;8934;51.194;17.150;2023-09-19T01:35:08;5.63;;;2.88;;
17631;SDS011;8934;51.194;17.150;2023-09-19T01:38:00;4.28;;;2.28;;
17631;SDS011;8934;51.194;17.150;2023-09-19T01:40:58;3.75;;;2.13;;
17631;SDS011;8934;51.194;17.150;2023-09-19T01:43:49;3.75;;;2.75;;
17631;SDS011;8934;51.194;17.150;2023-09-19T01:46:38;5.00;;;2.50;;
17631;SDS011;8934;51.194;17.150;2023-09-19T01:49:33;3.65;;;2.20;;
17631;SDS011;8934;51.194;17.150;2023-09-19T01:52:23;4.80;;;2.58;;
17631;SDS011;8934;51.194;17.150;2023-09-19T01:55:15;5.20;;;2.28;;
17631;SDS011;8934;51.194;17.150;2023-09-19T01:58:04;3.17;;;2.13;;
17631;SDS011;8934;51.194;17.150;2023-09-19T02:00:54;7.07;;;2.83;;
17631;SDS011;8934;51.194;17.150;2023-09-19T02:03:42;3.95;;;2.38;;
17631;SDS011;8934;51.194;17.150;2023-09-19T02:06:32;3.90;;;2.20;;
17631;SDS011;8934;51.194;17.150;2023-09-19T02:09:21;5.22;;;2.30;;
17631;SDS011;8934;51.194;17.150;2023-09-19T02:12:09;3.25;;;2.10;;
17631;SDS011;8934;51.194;17.150;2023-09-19T02:14:57;3.17;;;2.17;;
17631;SDS011;8934;51.194;17.150;2023-09-19T02:17:45;4.60;;;2.55;;
17631;SDS011;8934;51.194;17.150;2023-09-19T02:20:33;4.65;;;2.33;;
17631;SDS011;8934;51.194;17.150;2023-09-19T02:23:22;5.75;;;2.28;;
17631;SDS011;8934;51.194;17.150;2023-09-19T02:26:10;3.60;;;2.33;;
17631;SDS011;8934;51.194;17.150;2023-09-19T02:28:59;3.03;;;2.28;;
17631;SDS011;8934;51.194;17.150;2023-09-19T02:31:49;3.97;;;2.28;;
17631;SDS011;8934;51.194;17.150;2023-09-19T02:34:37;3.35;;;2.13;;
17631;SDS011;8934;51.194;17.150;2023-09-19T02:37:25;6.93;;;2.88;;
17631;SDS011;8934;51.194;17.150;2023-09-19T02:40:15;5.60;;;2.13;;
17631;SDS011;8934;51.194;17.150;2023-09-19T02:43:05;4.50;;;2.28;;
17631;SDS011;8934;51.194;17.150;2023-09-19T02:45:54;4.78;;;2.40;;
17631;SDS011;8934;51.194;17.150;2023-09-19T02:48:42;3.30;;;2.30;;
17631;SDS011;8934;51.194;17.150;2023-09-19T02:51:30;3.47;;;2.00;;
17631;SDS011;8934;51.194;17.150;2023-09-19T02:54:19;4.40;;;2.40;;
17631;SDS011;8934;51.194;17.150;2023-09-19T02:57:08;4.15;;;2.15;;
17631;SDS011;8934;51.194;17.150;2023-09-19T02:59:56;3.92;;;2.10;;
17631;SDS011;8934;51.194;17.150;2023-09-19T03:02:47;4.03;;;2.28;;
17631;SDS011;8934;51.194;17.150;2023-09-19T03:05:35;3.35;;;2.25;;
17631;SDS011;8934;51.194;17.150;2023-09-19T03:08:24;3.78;;;2.00;;
17631;SDS011;8934;51.194;17.150;2023-09-19T03:11:12;3.03;;;2.03;;
17631;SDS011;8934;51.194;17.150;2023-09-19T03:14:12;3.67;;;2.40;;
17631;SDS011;8934;51.194;17.150;2023-09-19T03:17:02;2.47;;;1.75;;
17631;SDS011;8934;51.194;17.150;2023-09-19T03:19:50;3.10;;;2.10;;
17631;SDS011;8934;51.194;17.150;2023-09-19T03:22:39;3.58;;;1.80;;
17631;SDS011;8934;51.194;17.150;2023-09-19T03:25:27;5.15;;;2.65;;
17631;SDS011;8934;51.194;17.150;2023-09-19T03:28:16;4.03;;;2.03;;
17631;SDS011;8934;51.194;17.150;2023-09-19T03:31:07;4.43;;;2.45;;
17631;SDS011;8934;51.194;17.150;2023-09-19T03:33:55;3.75;;;2.13;;
17631;SDS011;8934;51.194;17.150;2023-09-19T03:36:43;5.47;;;2.53;;
17631;SDS011;8934;51.194;17.150;2023-09-19T03:39:31;4.10;;;1.73;;
17631;SDS011;8934;51.194;17.150;2023-09-19T03:42:19;4.30;;;2.30;;
17631;SDS011;8934;51.194;17.150;2023-09-19T03:45:12;3.08;;;2.08;;
17631;SDS011;8934;51.194;17.150;2023-09-19T03:48:09;4.55;;;2.42;;
17631;SDS011;8934;51.194;17.150;2023-09-19T03:50:57;2.30;;;1.83;;
17631;SDS011;8934;51.194;17.150;2023-09-19T03:53:46;5.18;;;2.22;;
17631;SDS011;8934;51.194;17.150;2023-09-19T03:56:35;4.22;;;2.13;;
17631;SDS011;8934;51.194;17.150;2023-09-19T03:59:22;2.53;;;2.00;;
17631;SDS011;8934;51.194;17.150;2023-09-19T04:02:10;4.00;;;2.60;;
17631;SDS011;8934;51.194;17.150;2023-09-19T04:05:10;4.32;;;3.10;;
17631;SDS011;8934;51.194;17.150;2023-09-19T04:07:58;3.67;;;2.25;;
17631;SDS011;8934;51.194;17.150;2023-09-19T04:10:46;5.65;;;3.10;;
17631;SDS011;8934;51.194;17.150;2023-09-19T04:13:35;3.13;;;2.35;;
17631;SDS011;8934;51.194;17.150;2023-09-19T04:16:24;7.93;;;3.42;;
17631;SDS011;8934;51.194;17.150;2023-09-19T04:19:14;3.42;;;2.75;;
17631;SDS011;8934;51.194;17.150;2023-09-19T04:22:04;3.33;;;2.45;;
17631;SDS011;8934;51.194;17.150;2023-09-19T04:24:53;2.80;;;2.08;;
17631;SDS011;8934;51.194;17.150;2023-09-19T04:27:40;4.82;;;2.65;;
17631;SDS011;8934;51.194;17.150;2023-09-19T04:30:29;4.10;;;2.20;;
17631;SDS011;8934;51.194;17.150;2023-09-19T04:33:17;4.32;;;2.63;;
17631;SDS011;8934;51.194;17.150;2023-09-19T04:36:05;2.97;;;2.53;;
17631;SDS011;8934;51.194;17.150;2023-09-19T04:39:14;3.63;;;2.50;;
17631;SDS011;8934;51.194;17.150;2023-09-19T04:42:03;5.15;;;2.25;;
17631;SDS011;8934;51.194;17.150;2023-09-19T04:44:51;6.22;;;2.50;;
17631;SDS011;8934;51.194;17.150;2023-09-19T04:47:40;5.57;;;2.63;;
17631;SDS011;8934;51.194;17.150;2023-09-19T04:50:29;3.67;;;2.85;;
17631;SDS011;8934;51.194;17.150;2023-09-19T04:53:17;5.70;;;3.03;;
17631;SDS011;8934;51.194;17.150;2023-09-19T04:56:07;4.30;;;2.70;;
17631;SDS011;8934;51.194;17.150;2023-09-19T04:58:55;5.57;;;2.95;;
17631;SDS011;8934;51.194;17.150;2023-09-19T05:01:44;6.05;;;3.00;;
17631;SDS011;8934;51.194;17.150;2023-09-19T05:04:32;4.60;;;2.83;;
17631;SDS011;8934;51.194;17.150;2023-09-19T05:07:21;3.45;;;2.38;;
17631;SDS011;8934;51.194;17.150;2023-09-19T05:10:11;6.82;;;2.95;;
17631;SDS011;8934;51.194;17.150;2023-09-19T05:13:01;5.70;;;3.03;;
17631;SDS011;8934;51.194;17.150;2023-09-19T05:15:50;4.60;;;2.33;;
17631;SDS011;8934;51.194;17.150;2023-09-19T05:18:38;3.47;;;2.70;;
17631;SDS011;8934;51.194;17.150;2023-09-19T05:21:26;4.97;;;2.75;;
17631;SDS011;8934;51.194;17.150;2023-09-19T05:24:16;4.13;;;2.63;;
17631;SDS011;8934;51.194;17.150;2023-09-19T05:27:03;5.95;;;3.80;;
17631;SDS011;8934;51.194;17.150;2023-09-19T05:29:54;6.03;;;3.05;;
17631;SDS011;8934;51.194;17.150;2023-09-19T05:32:42;4.97;;;3.03;;
17631;SDS011;8934;51.194;17.150;2023-09-19T05:35:29;3.75;;;2.67;;
17631;SDS011;8934;51.194;17.150;2023-09-19T05:38:17;4.93;;;3.38;;
17631;SDS011;8934;51.194;17.150;2023-09-19T05:41:06;5.25;;;3.13;;
17631;SDS011;8934;51.194;17.150;2023-09-19T05:43:54;9.30;;;3.97;;
17631;SDS011;8934;51.194;17.150;2023-09-19T05:46:44;6.70;;;3.60;;
17631;SDS011;8934;51.194;17.150;2023-09-19T05:49:34;4.15;;;3.22;;
17631;SDS011;8934;51.194;17.150;2023-09-19T05:52:26;5.20;;;3.20;;
17631;SDS011;8934;51.194;17.150;2023-09-19T05:55:14;5.07;;;3.30;;
17631;SDS011;8934;51.194;17.150;2023-09-19T05:58:02;4.30;;;3.03;;
17631;SDS011;8934;51.194;17.150;2023-09-19T06:00:50;5.07;;;4.35;;
17631;SDS011;8934;51.194;17.150;2023-09-19T06:03:39;6.53;;;4.07;;
17631;SDS011;8934;51.194;17.150;2023-09-19T06:06:28;4.72;;;3.33;;
17631;SDS011;8934;51.194;17.150;2023-09-19T06:09:15;5.63;;;3.05;;
17631;SDS011;8934;51.194;17.150;2023-09-19T06:12:08;7.25;;;4.13;;
17631;SDS011;8934;51.194;17.150;2023-09-19T06:14:58;7.72;;;4.50;;
17631;SDS011;8934;51.194;17.150;2023-09-19T06:17:47;8.63;;;4.78;;
17631;SDS011;8934;51.194;17.150;2023-09-19T06:20:36;5.32;;;4.03;;
17631;SDS011;8934;51.194;17.150;2023-09-19T06:23:30;5.53;;;4.25;;
17631;SDS011;8934;51.194;17.150;2023-09-19T06:26:18;7.18;;;3.95;;
17631;SDS011;8934;51.194;17.150;2023-09-19T06:29:05;6.95;;;4.07;;
17631;SDS011;8934;51.194;17.150;2023-09-19T06:31:53;6.50;;;3.78;;
17631;SDS011;8934;51.194;17.150;2023-09-19T06:34:42;6.45;;;3.88;;
17631;SDS011;8934;51.194;17.150;2023-09-19T06:37:33;6.18;;;3.35;;
17631;SDS011;8934;51.194;17.150;2023-09-19T06:40:21;7.97;;;3.67;;
17631;SDS011;8934;51.194;17.150;2023-09-19T06:43:10;6.03;;;3.20;;
17631;SDS011;8934;51.194;17.150;2023-09-19T06:45:58;4.57;;;3.00;;
17631;SDS011;8934;51.194;17.150;2023-09-19T06:48:46;6.85;;;3.42;;
17631;SDS011;8934;51.194;17.150;2023-09-19T06:51:35;7.60;;;3.60;;
17631;SDS011;8934;51.194;17.150;2023-09-19T06:54:25;9.02;;;4.20;;
17631;SDS011;8934;51.194;17.150;2023-09-19T06:57:17;5.63;;;3.63;;
17631;SDS011;8934;51.194;17.150;2023-09-19T07:00:05;5.20;;;2.88;;
17631;SDS011;8934;51.194;17.150;2023-09-19T07:03:01;5.50;;;3.00;;
17631;SDS011;8934;51.194;17.150;2023-09-19T07:05:51;4.63;;;3.10;;
17631;SDS011;8934;51.194;17.150;2023-09-19T07:08:41;4.75;;;3.20;;
17631;SDS011;8934;51.194;17.150;2023-09-19T07:11:32;6.45;;;3.17;;
17631;SDS011;8934;51.194;17.150;2023-09-19T07:14:20;4.97;;;3.20;;
17631;SDS011;8934;51.194;17.150;2023-09-19T07:17:08;4.93;;;3.33;;
17631;SDS011;8934;51.194;17.150;2023-09-19T07:19:57;4.15;;;2.58;;
17631;SDS011;8934;51.194;17.150;2023-09-19T07:22:45;5.90;;;3.08;;
17631;SDS011;8934;51.194;17.150;2023-09-19T07:25:35;6.80;;;2.95;;
17631;SDS011;8934;51.194;17.150;2023-09-19T07:28:24;4.05;;;2.72;;
17631;SDS011;8934;51.194;17.150;2023-09-19T07:31:13;3.45;;;2.78;;
17631;SDS011;8934;51.194;17.150;2023-09-19T07:34:02;5.25;;;3.00;;
17631;SDS011;8934;51.194;17.150;2023-09-19T07:36:51;3.05;;;2.75;;
17631;SDS011;8934;51.194;17.150;2023-09-19T07:39:39;4.63;;;2.85;;
17631;SDS011;8934;51.194;17.150;2023-09-19T07:42:27;3.70;;;2.72;;
17631;SDS011;8934;51.194;17.150;2023-09-19T07:45:16;4.10;;;2.60;;
17631;SDS011;8934;51.194;17.150;2023-09-19T07:48:04;5.07;;;3.28;;
17631;SDS011;8934;51.194;17.150;2023-09-19T07:51:01;3.95;;;2.67;;
17631;SDS011;8934;51.194;17.150;2023-09-19T07:53:49;3.17;;;2.53;;
17631;SDS011;8934;51.194;17.150;2023-09-19T07:56:38;4.72;;;2.70;;
17631;SDS011;8934;51.194;17.150;2023-09-19T07:59:26;2.42;;;2.20;;
17631;SDS011;8934;51.194;17.150;2023-09-19T08:02:16;4.32;;;2.50;;
17631;SDS011;8934;51.194;17.150;2023-09-19T08:05:04;2.58;;;2.20;;
17631;SDS011;8934;51.194;17.150;2023-09-19T08:07:55;3.67;;;2.50;;
17631;SDS011;8934;51.194;17.150;2023-09-19T08:10:45;3.97;;;2.38;;
17631;SDS011;8934;51.194;17.150;2023-09-19T08:13:34;2.83;;;2.20;;
17631;SDS011;8934;51.194;17.150;2023-09-19T08:16:22;5.10;;;2.30;;
17631;SDS011;8934;51.194;17.150;2023-09-19T08:19:12;2.60;;;2.03;;
17631;SDS011;8934;51.194;17.150;2023-09-19T08:22:00;2.88;;;2.05;;
17631;SDS011;8934;51.194;17.150;2023-09-19T08:24:48;3.15;;;2.13;;
17631;SDS011;8934;51.194;17.150;2023-09-19T08:27:36;4.15;;;2.20;;
17631;SDS011;8934;51.194;17.150;2023-09-19T08:30:24;2.55;;;2.08;;
17631;SDS011;8934;51.194;17.150;2023-09-19T08:33:13;2.70;;;2.10;;
17631;SDS011;8934;51.194;17.150;2023-09-19T08:36:03;2.70;;;1.90;;
17631;SDS011;8934;51.194;17.150;2023-09-19T08:38:51;2.25;;;1.88;;
17631;SDS011;8934;51.194;17.150;2023-09-19T08:41:39;3.08;;;2.47;;
17631;SDS011;8934;51.194;17.150;2023-09-19T08:44:27;3.50;;;2.50;;
17631;SDS011;8934;51.194;17.150;2023-09-19T08:47:16;2.63;;;2.40;;
17631;SDS011;8934;51.194;17.150;2023-09-19T08:50:09;2.70;;;2.17;;
17631;SDS011;8934;51.194;17.150;2023-09-19T08:53:01;3.15;;;2.22;;
17631;SDS011;8934;51.194;17.150;2023-09-19T08:55:49;4.47;;;2.38;;
17631;SDS011;8934;51.194;17.150;2023-09-19T08:58:42;7.35;;;2.67;;
17631;SDS011;8934;51.194;17.150;2023-09-19T09:01:32;4.93;;;2.30;;
17631;SDS011;8934;51.194;17.150;2023-09-19T09:04:20;2.53;;;2.15;;
17631;SDS011;8934;51.194;17.150;2023-09-19T09:07:11;2.35;;;1.80;;
17631;SDS011;8934;51.194;17.150;2023-09-19T09:10:00;2.17;;;1.65;;
17631;SDS011;8934;51.194;17.150;2023-09-19T09:12:50;1.85;;;1.58;;
17631;SDS011;8934;51.194;17.150;2023-09-19T09:15:39;2.30;;;2.05;;
17631;SDS011;8934;51.194;17.150;2023-09-19T09:18:30;3.20;;;1.77;;
17631;SDS011;8934;51.194;17.150;2023-09-19T09:21:18;3.78;;;2.00;;
17631;SDS011;8934;51.194;17.150;2023-09-19T09:24:26;4.00;;;1.98;;
17631;SDS011;8934;51.194;17.150;2023-09-19T09:27:16;2.08;;;1.88;;
17631;SDS011;8934;51.194;17.150;2023-09-19T09:30:04;4.35;;;2.10;;
17631;SDS011;8934;51.194;17.150;2023-09-19T09:32:58;3.53;;;2.30;;
17631;SDS011;8934;51.194;17.150;2023-09-19T09:35:58;2.25;;;1.67;;
17631;SDS011;8934;51.194;17.150;2023-09-19T09:38:48;2.88;;;2.20;;
17631;SDS011;8934;51.194;17.150;2023-09-19T09:41:36;1.75;;;1.45;;
17631;SDS011;8934;51.194;17.150;2023-09-19T09:44:26;4.93;;;1.63;;
17631;SDS011;8934;51.194;17.150;2023-09-19T09:47:20;3.60;;;1.70;;
17631;SDS011;8934;51.194;17.150;2023-09-19T09:50:27;3.17;;;1.45;;
17631;SDS011;8934;51.194;17.150;2023-09-19T09:53:23;2.30;;;1.65;;
17631;SDS011;8934;51.194;17.150;2023-09-19T09:56:12;3.30;;;1.83;;
17631;SDS011;8934;51.194;17.150;2023-09-19T09:59:01;1.70;;;1.60;;
17631;SDS011;8934;51.194;17.150;2023-09-19T10:01:51;1.98;;;1.50;;
17631;SDS011;8934;51.194;17.150;2023-09-19T10:04:40;4.32;;;2.05;;
17631;SDS011;8934;51.194;17.150;2023-09-19T10:07:37;2.50;;;1.65;;
17631;SDS011;8934;51.194;17.150;2023-09-19T10:10:30;2.05;;;1.27;;
17631;SDS011;8934;51.194;17.150;2023-09-19T10:13:39;3.38;;;1.90;;
17631;SDS011;8934;51.194;17.150;2023-09-19T10:16:28;5.63;;;1.58;;
17631;SDS011;8934;51.194;17.150;2023-09-19T10:19:23;2.60;;;1.50;;
17631;SDS011;8934;51.194;17.150;2023-09-19T10:25:02;3.17;;;1.90;;
17631;SDS011;8934;51.194;17.150;2023-09-19T10:27:54;3.40;;;1.80;;
17631;SDS011;8934;51.194;17.150;2023-09-19T10:30:45;2.03;;;1.60;;
17631;SDS011;8934;51.194;17.150;2023-09-19T10:33:35;2.95;;;1.50;;
17631;SDS011;8934;51.194;17.150;2023-09-19T10:36:26;2.63;;;1.65;;
17631;SDS011;8934;51.194;17.150;2023-09-19T10:39:14;2.45;;;1.58;;
17631;SDS011;8934;51.194;17.150;2023-09-19T10:42:05;3.88;;;1.42;;
17631;SDS011;8934;51.194;17.150;2023-09-19T10:44:54;3.00;;;1.60;;
17631;SDS011;8934;51.194;17.150;2023-09-19T10:47:45;3.38;;;1.33;;
17631;SDS011;8934;51.194;17.150;2023-09-19T10:50:35;3.65;;;1.70;;
17631;SDS011;8934;51.194;17.150;2023-09-19T10:53:25;2.67;;;1.42;;
17631;SDS011;8934;51.194;17.150;2023-09-19T10:56:15;4.43;;;1.52;;
17631;SDS011;8934;51.194;17.150;2023-09-19T10:59:08;1.75;;;1.23;;
17631;SDS011;8934;51.194;17.150;2023-09-19T11:01:58;2.75;;;1.70;;
17631;SDS011;8934;51.194;17.150;2023-09-19T11:04:47;2.88;;;1.25;;
17631;SDS011;8934;51.194;17.150;2023-09-19T11:07:46;2.28;;;1.55;;
17631;SDS011;8934;51.194;17.150;2023-09-19T11:10:46;2.70;;;1.45;;
17631;SDS011;8934;51.194;17.150;2023-09-19T11:13:34;1.25;;;1.10;;
17631;SDS011;8934;51.194;17.150;2023-09-19T11:16:23;2.75;;;1.13;;
17631;SDS011;8934;51.194;17.150;2023-09-19T11:19:11;2.13;;;1.50;;
17631;SDS011;8934;51.194;17.150;2023-09-19T11:21:59;3.22;;;1.35;;
17631;SDS011;8934;51.194;17.150;2023-09-19T11:24:47;2.80;;;1.08;;
17631;SDS011;8934;51.194;17.150;2023-09-19T11:27:38;1.63;;;1.20;;
17631;SDS011;8934;51.194;17.150;2023-09-19T11:30:51;1.30;;;1.20;;
17631;SDS011;8934;51.194;17.150;2023-09-19T11:33:39;2.58;;;1.10;;
17631;SDS011;8934;51.194;17.150;2023-09-19T11:36:34;2.20;;;1.00;;
17631;SDS011;8934;51.194;17.150;2023-09-19T11:39:27;3.80;;;1.40;;
17631;SDS011;8934;51.194;17.150;2023-09-19T11:48:33;4.15;;;1.13;;
17631;SDS011;8934;51.194;17.150;2023-09-19T11:51:24;2.10;;;1.00;;
17631;SDS011;8934;51.194;17.150;2023-09-19T11:54:15;1.05;;;0.93;;
17631;SDS011;8934;51.194;17.150;2023-09-19T11:57:05;1.25;;;1.10;;
17631;SDS011;8934;51.194;17.150;2023-09-19T11:59:53;2.88;;;1.23;;
17631;SDS011;8934;51.194;17.150;2023-09-19T12:02:42;1.00;;;0.90;;
17631;SDS011;8934;51.194;17.150;2023-09-19T12:05:35;1.55;;;1.13;;
17631;SDS011;8934;51.194;17.150;2023-09-19T12:08:23;0.88;;;0.80;;
17631;SDS011;8934;51.194;17.150;2023-09-19T12:11:13;1.00;;;0.90;;
17631;SDS011;8934;51.194;17.150;2023-09-19T12:14:02;2.60;;;0.77;;
17631;SDS011;8934;51.194;17.150;2023-09-19T12:16:51;1.35;;;1.05;;
17631;SDS011;8934;51.194;17.150;2023-09-19T12:19:49;1.48;;;0.85;;
17631;SDS011;8934;51.194;17.150;2023-09-19T12:22:40;2.77;;;1.00;;
17631;SDS011;8934;51.194;17.150;2023-09-19T12:25:40;1.30;;;0.90;;
17631;SDS011;8934;51.194;17.150;2023-09-19T12:28:30;1.13;;;0.93;;
17631;SDS011;8934;51.194;17.150;2023-09-19T12:31:20;1.23;;;0.82;;
17631;SDS011;8934;51.194;17.150;2023-09-19T12:34:08;0.93;;;0.70;;
17631;SDS011;8934;51.194;17.150;2023-09-19T12:37:03;1.15;;;0.82;;
17631;SDS011;8934;51.194;17.150;2023-09-19T12:40:04;1.70;;;0.90;;
17631;SDS011;8934;51.194;17.150;2023-09-19T12:43:02;1.30;;;0.80;;
17631;SDS011;8934;51.194;17.150;2023-09-19T12:45:50;1.55;;;0.80;;
17631;SDS011;8934;51.194;17.150;2023-09-19T12:48:39;3.72;;;0.95;;
17631;SDS011;8934;51.194;17.150;2023-09-19T12:51:34;3.45;;;1.00;;
17631;SDS011;8934;51.194;17.150;2023-09-19T12:54:22;1.27;;;0.82;;
17631;SDS011;8934;51.194;17.150;2023-09-19T12:57:24;1.92;;;1.00;;
17631;SDS011;8934;51.194;17.150;2023-09-19T13:00:12;2.70;;;1.40;;
17631;SDS011;8934;51.194;17.150;2023-09-19T13:03:11;0.98;;;0.80;;
17631;SDS011;8934;51.194;17.150;2023-09-19T13:06:02;2.20;;;1.10;;
17631;SDS011;8934;51.194;17.150;2023-09-19T13:09:07;1.90;;;1.08;;
17631;SDS011;8934;51.194;17.150;2023-09-19T13:11:55;1.48;;;0.90;;
17631;SDS011;8934;51.194;17.150;2023-09-19T13:14:46;1.48;;;1.10;;
17631;SDS011;8934;51.194;17.150;2023-09-19T13:17:42;1.00;;;0.90;;
17631;SDS011;8934;51.194;17.150;2023-09-19T13:20:31;1.50;;;0.80;;
17631;SDS011;8934;51.194;17.150;2023-09-19T13:23:28;2.00;;;0.80;;
17631;SDS011;8934;51.194;17.150;2023-09-19T13:26:16;1.60;;;0.98;;
17631;SDS011;8934;51.194;17.150;2023-09-19T13:29:04;2.38;;;0.90;;
17631;SDS011;8934;51.194;17.150;2023-09-19T13:31:53;1.75;;;0.88;;
17631;SDS011;8934;51.194;17.150;2023-09-19T13:34:42;1.20;;;0.90;;
17631;SDS011;8934;51.194;17.150;2023-09-19T13:37:30;1.77;;;1.00;;
17631;SDS011;8934;51.194;17.150;2023-09-19T13:40:17;1.90;;;0.93;;
17631;SDS011;8934;51.194;17.150;2023-09-19T13:43:05;1.15;;;0.80;;
17631;SDS011;8934;51.194;17.150;2023-09-19T13:45:53;2.85;;;1.02;;
17631;SDS011;8934;51.194;17.150;2023-09-19T13:48:44;2.40;;;1.08;;
17631;SDS011;8934;51.194;17.150;2023-09-19T13:51:32;3.75;;;0.90;;
17631;SDS011;8934;51.194;17.150;2023-09-19T13:54:20;2.05;;;1.17;;
17631;SDS011;8934;51.194;17.150;2023-09-19T13:57:08;1.92;;;0.90;;
17631;SDS011;8934;51.194;17.150;2023-09-19T13:59:56;1.75;;;0.80;;
17631;SDS011;8934;51.194;17.150;2023-09-19T14:02:44;1.15;;;0.95;;
17631;SDS011;8934;51.194;17.150;2023-09-19T14:05:36;1.27;;;0.80;;
17631;SDS011;8934;51.194;17.150;2023-09-19T14:08:24;1.42;;;0.73;;
17631;SDS011;8934;51.194;17.150;2023-09-19T14:11:12;1.48;;;1.02;;
17631;SDS011;8934;51.194;17.150;2023-09-19T14:14:01;2.20;;;0.80;;
17631;SDS011;8934;51.194;17.150;2023-09-19T14:16:50;0.85;;;0.73;;
17631;SDS011;8934;51.194;17.150;2023-09-19T14:19:40;2.13;;;1.02;;
17631;SDS011;8934;51.194;17.150;2023-09-19T14:22:32;1.60;;;0.90;;
17631;SDS011;8934;51.194;17.150;2023-09-19T14:25:21;2.13;;;1.10;;
17631;SDS011;8934;51.194;17.150;2023-09-19T14:28:09;1.92;;;0.80;;
17631;SDS011;8934;51.194;17.150;2023-09-19T14:30:57;1.83;;;0.82;;
17631;SDS011;8934;51.194;17.150;2023-09-19T14:33:45;1.55;;;0.70;;
17631;SDS011;8934;51.194;17.150;2023-09-19T14:36:33;1.70;;;0.90;;
17631;SDS011;8934;51.194;17.150;2023-09-19T14:39:22;2.00;;;0.82;;
17631;SDS011;8934;51.194;17.150;2023-09-19T14:42:10;2.97;;;1.10;;
17631;SDS011;8934;51.194;17.150;2023-09-19T14:45:00;1.00;;;0.70;;
17631;SDS011;8934;51.194;17.150;2023-09-19T14:47:50;1.85;;;0.80;;
17631;SDS011;8934;51.194;17.150;2023-09-19T14:50:40;1.60;;;1.15;;
17631;SDS011;8934;51.194;17.150;2023-09-19T14:53:29;2.97;;;0.90;;
17631;SDS011;8934;51.194;17.150;2023-09-19T14:56:19;4.82;;;1.00;;
17631;SDS011;8934;51.194;17.150;2023-09-19T14:59:09;2.28;;;1.00;;
17631;SDS011;8934;51.194;17.150;2023-09-19T15:01:58;1.65;;;1.10;;
17631;SDS011;8934;51.194;17.150;2023-09-19T15:04:46;3.15;;;1.00;;
17631;SDS011;8934;51.194;17.150;2023-09-19T15:07:35;1.08;;;0.88;;
17631;SDS011;8934;51.194;17.150;2023-09-19T15:10:23;1.67;;;1.10;;
17631;SDS011;8934;51.194;17.150;2023-09-19T15:13:13;1.45;;;0.80;;
17631;SDS011;8934;51.194;17.150;2023-09-19T15:16:01;4.28;;;1.20;;
17631;SDS011;8934;51.194;17.150;2023-09-19T15:18:49;1.65;;;0.82;;
17631;SDS011;8934;51.194;17.150;2023-09-19T15:21:37;1.42;;;0.80;;
17631;SDS011;8934;51.194;17.150;2023-09-19T15:24:26;2.45;;;0.95;;
17631;SDS011;8934;51.194;17.150;2023-09-19T15:27:13;2.05;;;0.90;;
17631;SDS011;8934;51.194;17.150;2023-09-19T15:30:04;2.25;;;0.60;;
17631;SDS011;8934;51.194;17.150;2023-09-19T15:32:53;1.80;;;0.70;;
17631;SDS011;8934;51.194;17.150;2023-09-19T15:35:41;2.15;;;0.80;;
17631;SDS011;8934;51.194;17.150;2023-09-19T15:38:29;1.08;;;0.85;;
17631;SDS011;8934;51.194;17.150;2023-09-19T15:41:18;0.70;;;0.68;;
17631;SDS011;8934;51.194;17.150;2023-09-19T15:44:10;1.00;;;0.60;;
17631;SDS011;8934;51.194;17.150;2023-09-19T15:47:00;2.33;;;1.00;;
17631;SDS011;8934;51.194;17.150;2023-09-19T15:49:48;1.63;;;0.90;;
17631;SDS011;8934;51.194;17.150;2023-09-19T15:52:36;2.65;;;0.90;;
17631;SDS011;8934;51.194;17.150;2023-09-19T15:55:25;2.63;;;1.10;;
17631;SDS011;8934;51.194;17.150;2023-09-19T15:58:13;1.13;;;0.80;;
17631;SDS011;8934;51.194;17.150;2023-09-19T16:01:04;1.15;;;0.90;;
17631;SDS011;8934;51.194;17.150;2023-09-19T16:03:56;1.80;;;0.73;;
17631;SDS011;8934;51.194;17.150;2023-09-19T16:06:43;3.42;;;0.73;;
17631;SDS011;8934;51.194;17.150;2023-09-19T16:09:31;4.35;;;1.00;;
17631;SDS011;8934;51.194;17.150;2023-09-19T16:12:19;1.65;;;0.80;;
17631;SDS011;8934;51.194;17.150;2023-09-19T16:15:07;1.40;;;0.80;;
17631;SDS011;8934;51.194;17.150;2023-09-19T16:17:57;0.98;;;0.90;;
17631;SDS011;8934;51.194;17.150;2023-09-19T16:20:47;1.50;;;0.80;;
17631;SDS011;8934;51.194;17.150;2023-09-19T16:23:36;2.08;;;1.00;;
17631;SDS011;8934;51.194;17.150;2023-09-19T16:26:24;1.48;;;0.70;;
17631;SDS011;8934;51.194;17.150;2023-09-19T16:29:11;1.13;;;0.90;;
17631;SDS011;8934;51.194;17.150;2023-09-19T16:31:59;6.97;;;1.30;;
17631;SDS011;8934;51.194;17.150;2023-09-19T16:34:47;1.85;;;0.98;;
17631;SDS011;8934;51.194;17.150;2023-09-19T16:37:37;1.67;;;0.73;;
17631;SDS011;8934;51.194;17.150;2023-09-19T16:40:26;2.10;;;1.20;;
17631;SDS011;8934;51.194;17.150;2023-09-19T16:43:13;3.28;;;0.80;;
17631;SDS011;8934;51.194;17.150;2023-09-19T16:46:02;2.20;;;1.00;;
17631;SDS011;8934;51.194;17.150;2023-09-19T16:48:52;1.00;;;0.90;;
17631;SDS011;8934;51.194;17.150;2023-09-19T16:51:49;4.07;;;0.95;;
17631;SDS011;8934;51.194;17.150;2023-09-19T16:54:38;1.05;;;0.90;;
17631;SDS011;8934;51.194;17.150;2023-09-19T16:57:25;1.63;;;1.10;;
17631;SDS011;8934;51.194;17.150;2023-09-19T17:00:14;3.13;;;1.17;;
17631;SDS011;8934;51.194;17.150;2023-09-19T17:03:04;2.05;;;1.15;;
17631;SDS011;8934;51.194;17.150;2023-09-19T17:05:56;2.38;;;0.88;;
17631;SDS011;8934;51.194;17.150;2023-09-19T17:08:44;1.75;;;1.10;;
17631;SDS011;8934;51.194;17.150;2023-09-19T17:11:33;2.75;;;1.25;;
17631;SDS011;8934;51.194;17.150;2023-09-19T17:14:21;1.13;;;0.80;;
17631;SDS011;8934;51.194;17.150;2023-09-19T17:17:09;2.28;;;0.95;;
17631;SDS011;8934;51.194;17.150;2023-09-19T17:19:57;1.92;;;1.08;;